createdAt,value
2018-07-31T00:01:07.424Z,10.80
2018-07-31T00:03:35.636Z,11.10
2018-07-31T00:06:03.876Z,11.00
2018-07-31T00:08:32.072Z,10.70
2018-07-31T00:11:00.311Z,10.73
2018-07-31T00:13:28.484Z,10.70
2018-07-31T00:15:56.716Z,11.43
2018-07-31T00:18:24.920Z,10.10
2018-07-31T00:20:53.089Z,10.97
2018-07-31T00:23:21.283Z,10.70
2018-07-31T00:25:49.461Z,13.07
2018-07-31T00:28:17.669Z,10.93
2018-07-31T00:30:45.860Z,10.80
2018-07-31T00:33:14.029Z,11.03
2018-07-31T00:35:42.229Z,10.67
2018-07-31T00:38:10.800Z,10.47
2018-07-31T00:40:38.985Z,10.53
2018-07-31T00:43:07.200Z,10.83
2018-07-31T00:45:35.408Z,10.17
2018-07-31T00:48:03.669Z,11.10
2018-07-31T00:50:31.820Z,10.80
2018-07-31T00:53:00.000Z,10.87
2018-07-31T00:55:28.203Z,12.00
2018-07-31T00:57:56.364Z,11.13
2018-07-31T01:00:24.652Z,10.10
2018-07-31T01:02:52.815Z,11.20
2018-07-31T01:05:21.002Z,10.60
2018-07-31T01:07:49.203Z,10.00
2018-07-31T01:10:17.413Z,10.60
2018-07-31T01:12:45.635Z,11.20
2018-07-31T01:15:13.801Z,10.30
2018-07-31T01:17:42.001Z,10.10
2018-07-31T01:20:10.160Z,10.50
2018-07-31T01:22:38.348Z,10.53
2018-07-31T01:25:06.444Z,9.80
2018-07-31T01:27:34.599Z,10.40
2018-07-31T01:30:03.033Z,10.67
2018-07-31T01:32:31.183Z,10.27
2018-07-31T01:34:59.381Z,10.83
2018-07-31T01:37:27.580Z,10.33
2018-07-31T01:39:55.785Z,11.40
2018-07-31T01:42:23.971Z,10.17
2018-07-31T01:44:52.133Z,11.30
2018-07-31T01:47:20.361Z,10.23
2018-07-31T01:49:48.648Z,10.80
2018-07-31T01:52:16.869Z,10.23
2018-07-31T01:54:45.376Z,10.20
2018-07-31T01:57:13.520Z,11.00
2018-07-31T01:59:41.768Z,9.43
2018-07-31T02:02:09.984Z,10.40
2018-07-31T02:04:38.125Z,10.20
2018-07-31T02:07:06.356Z,9.33
2018-07-31T02:09:34.512Z,9.43
2018-07-31T02:12:02.716Z,10.83
2018-07-31T02:14:30.917Z,9.87
2018-07-31T02:16:59.130Z,9.90
2018-07-31T02:19:27.321Z,10.57
2018-07-31T02:21:55.468Z,11.43
2018-07-31T02:24:23.663Z,9.17
2018-07-31T02:26:51.808Z,9.93
2018-07-31T02:29:24.451Z,9.43
2018-07-31T02:31:52.648Z,8.80
2018-07-31T02:34:20.798Z,9.40
2018-07-31T02:36:48.980Z,8.53
2018-07-31T02:39:17.136Z,10.33
2018-07-31T02:41:45.997Z,10.30
2018-07-31T02:44:14.166Z,10.60
2018-07-31T02:46:42.391Z,10.37
2018-07-31T02:49:10.606Z,9.50
2018-07-31T02:51:38.785Z,10.10
2018-07-31T02:54:06.989Z,9.67
2018-07-31T02:56:35.132Z,9.10
2018-07-31T02:59:03.137Z,10.07
2018-07-31T03:01:31.300Z,9.27
2018-07-31T03:03:59.504Z,10.93
2018-07-31T03:06:27.656Z,10.77
2018-07-31T03:08:55.817Z,9.90
2018-07-31T03:11:24.056Z,10.17
2018-07-31T03:13:52.212Z,9.27
2018-07-31T03:16:20.398Z,9.07
2018-07-31T03:18:48.601Z,10.00
2018-07-31T03:21:16.790Z,9.67
2018-07-31T03:23:45.002Z,11.40
2018-07-31T03:26:13.157Z,9.97
2018-07-31T03:28:41.368Z,10.47
2018-07-31T03:31:09.564Z,9.13
2018-07-31T03:33:37.730Z,10.10
2018-07-31T03:36:05.948Z,11.47
2018-07-31T03:38:34.113Z,9.20
2018-07-31T03:41:02.348Z,9.60
2018-07-31T03:43:30.568Z,10.60
2018-07-31T03:45:58.741Z,10.20
2018-07-31T03:48:26.968Z,9.50
2018-07-31T03:50:55.187Z,11.07
2018-07-31T03:53:23.372Z,10.17
2018-07-31T03:55:51.573Z,10.83
2018-07-31T03:58:19.739Z,10.83
2018-07-31T04:00:47.945Z,10.30
2018-07-31T04:03:16.120Z,10.03
2018-07-31T04:05:44.405Z,10.33
2018-07-31T04:08:12.567Z,10.00
2018-07-31T04:10:40.757Z,10.37
2018-07-31T04:13:08.967Z,10.10
2018-07-31T04:15:37.121Z,10.30
2018-07-31T04:18:05.385Z,10.37
2018-07-31T04:20:33.556Z,9.93
2018-07-31T04:23:01.756Z,11.07
2018-07-31T04:25:29.968Z,9.10
2018-07-31T04:27:58.165Z,10.10
2018-07-31T04:30:26.457Z,10.63
2018-07-31T04:32:54.656Z,10.30
2018-07-31T04:35:22.892Z,10.93
2018-07-31T04:37:51.048Z,10.10
2018-07-31T04:40:19.251Z,9.90
2018-07-31T04:42:47.457Z,9.70
2018-07-31T04:45:15.632Z,11.47
2018-07-31T04:47:43.822Z,11.13
2018-07-31T04:50:12.003Z,12.23
2018-07-31T04:52:40.212Z,10.30
2018-07-31T04:55:08.449Z,11.20
2018-07-31T04:57:36.609Z,11.40
2018-07-31T05:00:06.947Z,10.07
2018-07-31T05:02:35.144Z,10.70
2018-07-31T05:05:03.556Z,11.50
2018-07-31T05:07:35.341Z,11.97
2018-07-31T05:10:03.692Z,12.90
2018-07-31T05:12:38.933Z,12.37
2018-07-31T05:15:07.172Z,11.80
2018-07-31T05:17:36.100Z,12.60
2018-07-31T05:20:05.223Z,11.70
2018-07-31T05:22:33.440Z,12.60
2018-07-31T05:25:01.609Z,11.50
2018-07-31T05:27:29.808Z,11.47
2018-07-31T05:29:58.024Z,11.87
2018-07-31T05:32:26.415Z,11.20
2018-07-31T05:34:54.617Z,12.17
2018-07-31T05:37:22.833Z,11.60
2018-07-31T05:39:51.084Z,11.50
2018-07-31T05:42:19.316Z,13.50
2018-07-31T05:44:47.500Z,11.20
2018-07-31T05:47:15.702Z,12.27
2018-07-31T05:49:43.863Z,11.53
2018-07-31T05:52:12.056Z,12.73
2018-07-31T05:54:40.369Z,10.80
2018-07-31T05:57:08.971Z,10.90
2018-07-31T05:59:38.056Z,10.23
2018-07-31T06:02:06.942Z,10.60
2018-07-31T06:04:35.148Z,11.27
2018-07-31T06:07:03.716Z,11.17
2018-07-31T06:09:31.994Z,10.00
2018-07-31T06:12:00.197Z,10.70
2018-07-31T06:14:28.393Z,11.20
2018-07-31T06:16:56.594Z,10.03
2018-07-31T06:19:24.815Z,10.70
2018-07-31T06:21:53.084Z,9.60
2018-07-31T06:24:21.232Z,10.40
2018-07-31T06:26:49.429Z,10.60
2018-07-31T06:29:17.585Z,10.60
2018-07-31T06:31:45.794Z,8.87
2018-07-31T06:34:13.971Z,9.70
2018-07-31T06:36:42.166Z,8.53
2018-07-31T06:39:10.688Z,8.60
2018-07-31T06:41:38.877Z,7.90
2018-07-31T06:44:07.465Z,8.30
2018-07-31T06:46:35.816Z,8.30
2018-07-31T06:49:04.138Z,8.20
2018-07-31T06:51:32.285Z,8.00
2018-07-31T06:54:00.473Z,9.40
2018-07-31T06:56:28.637Z,9.47
2018-07-31T06:58:56.860Z,9.60
2018-07-31T07:01:25.088Z,10.57
2018-07-31T07:03:53.297Z,9.20
2018-07-31T07:06:21.505Z,10.30
2018-07-31T07:08:49.667Z,8.90
2018-07-31T07:11:17.929Z,9.30
2018-07-31T07:13:46.099Z,9.23
2018-07-31T07:16:14.296Z,9.10
2018-07-31T07:18:42.479Z,9.57
2018-07-31T07:21:10.644Z,8.40
2018-07-31T07:23:38.613Z,7.50
2018-07-31T07:26:06.777Z,8.73
2018-07-31T07:28:34.968Z,9.60
2018-07-31T07:31:03.165Z,7.80
2018-07-31T07:33:31.377Z,8.80
2018-07-31T07:35:59.621Z,7.87
2018-07-31T07:38:27.800Z,8.37
2018-07-31T07:40:55.996Z,7.47
2018-07-31T07:43:24.200Z,6.97
2018-07-31T07:45:52.358Z,7.50
2018-07-31T07:48:20.581Z,7.63
2018-07-31T07:50:49.472Z,7.60
2018-07-31T07:53:17.648Z,7.93
2018-07-31T07:55:45.853Z,7.80
2018-07-31T07:58:14.020Z,8.47
2018-07-31T08:00:42.228Z,7.67
2018-07-31T08:03:10.401Z,8.27
2018-07-31T08:05:41.381Z,7.90
2018-07-31T08:08:10.482Z,9.10
2018-07-31T08:10:41.130Z,8.27
2018-07-31T08:13:09.385Z,7.50
2018-07-31T08:15:37.624Z,7.60
2018-07-31T08:18:05.808Z,8.17
2018-07-31T08:20:34.328Z,7.80
2018-07-31T08:23:02.565Z,7.07
2018-07-31T08:25:30.817Z,7.93
2018-07-31T08:27:59.077Z,8.60
2018-07-31T08:30:27.292Z,8.33
2018-07-31T08:32:55.508Z,8.20
2018-07-31T08:35:23.693Z,7.90
2018-07-31T08:37:51.917Z,8.80
2018-07-31T08:40:20.116Z,7.40
2018-07-31T08:42:48.331Z,7.53
2018-07-31T08:45:16.517Z,7.73
2018-07-31T08:47:44.709Z,8.20
2018-07-31T08:50:12.848Z,7.93
2018-07-31T08:52:41.036Z,8.30
2018-07-31T08:55:09.220Z,8.23
2018-07-31T08:57:37.429Z,8.17
2018-07-31T09:00:07.184Z,8.00
2018-07-31T09:02:35.397Z,7.80
2018-07-31T09:05:03.736Z,7.50
2018-07-31T09:07:31.913Z,9.00
2018-07-31T09:10:00.188Z,8.90
2018-07-31T09:12:28.385Z,8.10
2018-07-31T09:14:56.585Z,7.30
2018-07-31T09:17:24.863Z,8.57
2018-07-31T09:19:53.084Z,8.20
2018-07-31T09:22:21.356Z,8.20
2018-07-31T09:24:49.596Z,7.73
2018-07-31T09:27:17.746Z,7.90
2018-07-31T09:29:45.932Z,7.50
2018-07-31T09:32:14.136Z,7.90
2018-07-31T09:34:46.501Z,7.60
2018-07-31T09:37:15.457Z,7.43
2018-07-31T09:39:43.647Z,7.27
2018-07-31T09:42:11.849Z,7.10
2018-07-31T09:44:40.043Z,7.30
2018-07-31T09:47:08.196Z,7.23
2018-07-31T09:49:43.045Z,6.50
2018-07-31T09:52:11.188Z,8.00
2018-07-31T09:54:39.390Z,7.20
2018-07-31T09:57:07.642Z,6.67
2018-07-31T09:59:35.813Z,6.90
2018-07-31T10:02:04.012Z,6.37
2018-07-31T10:04:32.243Z,6.40
2018-07-31T10:07:00.386Z,6.50
2018-07-31T10:09:28.700Z,5.87
2018-07-31T10:11:56.949Z,6.60
2018-07-31T10:14:25.209Z,5.43
2018-07-31T10:16:53.428Z,5.50
2018-07-31T10:19:21.572Z,6.30
2018-07-31T10:21:49.769Z,5.67
2018-07-31T10:24:18.035Z,6.40
2018-07-31T10:26:46.273Z,7.10
2018-07-31T10:29:14.510Z,5.60
2018-07-31T10:31:42.693Z,6.30
2018-07-31T10:34:10.878Z,6.47
2018-07-31T10:36:39.103Z,6.83
2018-07-31T10:39:08.334Z,6.00
2018-07-31T10:41:36.775Z,6.03
2018-07-31T10:44:05.049Z,5.60
2018-07-31T10:46:33.197Z,7.27
2018-07-31T10:49:01.450Z,7.10
2018-07-31T10:51:29.636Z,6.80
2018-07-31T10:53:57.821Z,7.30
2018-07-31T10:56:26.005Z,6.67
2018-07-31T10:58:54.196Z,6.77
2018-07-31T11:01:22.383Z,6.07
2018-07-31T11:03:50.583Z,6.20
2018-07-31T11:06:18.853Z,5.77
2018-07-31T11:08:46.985Z,6.23
2018-07-31T11:11:15.241Z,7.30
2018-07-31T11:13:43.421Z,6.20
2018-07-31T11:16:11.620Z,6.13
2018-07-31T11:18:40.016Z,5.90
2018-07-31T11:21:08.294Z,6.80
2018-07-31T11:23:36.403Z,7.23
2018-07-31T11:26:04.572Z,6.30
2018-07-31T11:28:32.818Z,7.80
2018-07-31T11:31:01.069Z,5.90
2018-07-31T11:33:29.232Z,6.63
2018-07-31T11:35:57.450Z,6.90
2018-07-31T11:38:25.613Z,6.67
2018-07-31T11:40:53.836Z,6.37
2018-07-31T11:43:22.029Z,6.50
2018-07-31T11:45:50.220Z,7.40
2018-07-31T11:48:18.429Z,7.00
2018-07-31T11:50:46.693Z,7.00
2018-07-31T11:53:14.881Z,7.10
2018-07-31T11:55:43.053Z,6.50
2018-07-31T11:58:11.344Z,6.50
2018-07-31T12:00:39.529Z,6.53
2018-07-31T12:03:07.730Z,6.10
2018-07-31T12:05:35.960Z,6.33
2018-07-31T12:08:04.132Z,6.77
2018-07-31T12:10:32.343Z,5.87
2018-07-31T12:13:00.528Z,6.17
2018-07-31T12:15:28.737Z,5.53
2018-07-31T12:17:57.257Z,5.60
2018-07-31T12:20:25.465Z,6.10
2018-07-31T12:22:53.665Z,5.30
2018-07-31T12:25:21.846Z,6.73
2018-07-31T12:27:50.081Z,6.47
2018-07-31T12:30:18.282Z,6.10
2018-07-31T12:32:46.543Z,5.80
2018-07-31T12:35:14.481Z,5.00
2018-07-31T12:37:42.636Z,5.80
2018-07-31T12:40:10.845Z,5.43
2018-07-31T12:42:39.016Z,5.47
2018-07-31T12:45:07.233Z,4.93
2018-07-31T12:47:35.461Z,6.33
2018-07-31T12:50:04.340Z,5.90
2018-07-31T12:52:32.517Z,5.57
2018-07-31T12:55:00.702Z,5.73
2018-07-31T12:57:29.268Z,5.20
2018-07-31T12:59:57.497Z,5.60
2018-07-31T13:02:25.677Z,5.77
2018-07-31T13:04:53.883Z,5.47
2018-07-31T13:07:22.076Z,5.60
2018-07-31T13:09:50.265Z,4.73
2018-07-31T13:12:18.459Z,6.07
2018-07-31T13:14:46.624Z,4.53
2018-07-31T13:17:14.852Z,5.90
2018-07-31T13:19:43.010Z,5.97
2018-07-31T13:22:11.252Z,4.97
2018-07-31T13:24:39.464Z,5.53
2018-07-31T13:27:07.649Z,5.30
2018-07-31T13:29:35.885Z,5.40
2018-07-31T13:32:04.089Z,5.10
2018-07-31T13:34:32.311Z,5.23
2018-07-31T13:37:00.502Z,4.70
2018-07-31T13:39:28.650Z,4.97
2018-07-31T13:41:56.906Z,5.10
2018-07-31T13:44:25.081Z,5.37
2018-07-31T13:46:53.277Z,5.00
2018-07-31T13:49:21.476Z,5.30
2018-07-31T13:51:49.668Z,6.00
2018-07-31T13:54:17.856Z,4.60
2018-07-31T13:56:46.013Z,5.30
2018-07-31T13:59:14.204Z,4.40
2018-07-31T14:01:42.516Z,5.40
2018-07-31T14:04:10.710Z,5.07
2018-07-31T14:06:38.937Z,5.17
2018-07-31T14:09:08.787Z,4.80
2018-07-31T14:11:37.066Z,4.97
2018-07-31T14:14:05.362Z,4.97
2018-07-31T14:16:33.853Z,4.83
2018-07-31T14:19:02.071Z,4.90
2018-07-31T14:21:30.245Z,5.47
2018-07-31T14:23:58.448Z,4.73
2018-07-31T14:26:26.608Z,4.67
2018-07-31T14:28:54.833Z,5.00
2018-07-31T14:31:23.057Z,4.77
2018-07-31T14:33:51.249Z,6.30
2018-07-31T14:36:19.449Z,4.50
2018-07-31T14:38:47.678Z,4.70
2018-07-31T14:41:15.810Z,4.87
2018-07-31T14:43:44.029Z,5.13
2018-07-31T14:46:12.220Z,4.83
2018-07-31T14:48:40.385Z,5.10
2018-07-31T14:51:08.591Z,5.00
2018-07-31T14:53:36.760Z,5.30
2018-07-31T14:56:04.985Z,5.23
2018-07-31T14:58:33.192Z,4.57
2018-07-31T15:01:01.424Z,4.97
2018-07-31T15:03:29.615Z,5.00
2018-07-31T15:05:58.161Z,4.70
2018-07-31T15:08:26.361Z,4.67
2018-07-31T15:10:54.544Z,4.40
2018-07-31T15:13:22.764Z,4.70
2018-07-31T15:15:50.956Z,5.40
2018-07-31T15:18:19.165Z,5.33
2018-07-31T15:20:47.347Z,4.77
2018-07-31T15:23:15.536Z,5.10
2018-07-31T15:25:43.724Z,4.80
2018-07-31T15:28:11.903Z,5.13
2018-07-31T15:30:40.194Z,4.60
2018-07-31T15:33:08.403Z,4.80
2018-07-31T15:35:36.613Z,5.00
2018-07-31T15:38:04.820Z,4.57
2018-07-31T15:40:32.977Z,4.70
2018-07-31T15:43:01.183Z,5.07
2018-07-31T15:45:29.357Z,5.00
2018-07-31T15:47:57.556Z,5.00
2018-07-31T15:50:25.813Z,4.60
2018-07-31T15:52:54.034Z,4.93
2018-07-31T15:55:22.255Z,4.80
2018-07-31T15:57:50.416Z,5.03
2018-07-31T16:00:18.699Z,5.00
2018-07-31T16:02:46.941Z,5.53
2018-07-31T16:05:15.116Z,5.37
2018-07-31T16:07:43.333Z,5.67
2018-07-31T16:10:11.503Z,5.40
2018-07-31T16:12:39.720Z,4.77
2018-07-31T16:15:07.974Z,4.87
2018-07-31T16:17:36.160Z,4.57
2018-07-31T16:20:04.561Z,5.43
2018-07-31T16:22:32.745Z,5.03
2018-07-31T16:25:00.943Z,4.90
2018-07-31T16:27:29.163Z,5.10
2018-07-31T16:29:57.389Z,5.80
2018-07-31T16:32:25.693Z,5.10
2018-07-31T16:34:53.865Z,5.00
2018-07-31T16:37:22.071Z,5.47
2018-07-31T16:39:50.290Z,5.90
2018-07-31T16:42:18.492Z,4.67
2018-07-31T16:44:46.697Z,5.17
2018-07-31T16:47:14.881Z,5.77
2018-07-31T16:49:43.074Z,5.50
2018-07-31T16:52:11.274Z,5.03
2018-07-31T16:54:39.473Z,4.80
2018-07-31T16:57:07.766Z,4.30
2018-07-31T16:59:35.924Z,5.30
2018-07-31T17:02:04.144Z,5.43
2018-07-31T17:04:32.340Z,6.80
2018-07-31T17:07:00.553Z,5.20
2018-07-31T17:09:28.762Z,6.20
2018-07-31T17:11:56.994Z,5.33
2018-07-31T17:14:25.180Z,5.00
2018-07-31T17:16:53.384Z,7.50
2018-07-31T17:19:21.586Z,7.43
2018-07-31T17:21:49.869Z,5.73
2018-07-31T17:24:18.069Z,5.53
2018-07-31T17:26:46.288Z,5.70
2018-07-31T17:29:14.576Z,5.90
2018-07-31T17:31:42.786Z,5.43
2018-07-31T17:34:11.000Z,5.53
2018-07-31T17:36:39.188Z,5.47
2018-07-31T17:39:09.489Z,6.17
2018-07-31T17:41:38.325Z,5.77
2018-07-31T17:44:06.564Z,6.23
2018-07-31T17:46:34.856Z,5.37
2018-07-31T17:49:03.021Z,6.10
2018-07-31T17:51:31.273Z,6.83
2018-07-31T17:53:59.545Z,7.10
2018-07-31T17:56:27.772Z,5.03
2018-07-31T17:58:55.988Z,5.53
2018-07-31T18:01:24.177Z,6.40
2018-07-31T18:03:52.452Z,6.60
2018-07-31T18:06:20.632Z,5.50
2018-07-31T18:08:48.862Z,6.50
2018-07-31T18:11:17.032Z,8.83
2018-07-31T18:13:45.269Z,8.20
2018-07-31T18:16:13.469Z,6.80
2018-07-31T18:18:41.804Z,7.20
2018-07-31T18:21:10.370Z,7.07
2018-07-31T18:23:39.571Z,7.27
2018-07-31T18:26:07.839Z,6.43
2018-07-31T18:28:36.034Z,6.10
2018-07-31T18:31:04.384Z,5.93
2018-07-31T18:33:32.640Z,6.70
2018-07-31T18:36:00.893Z,6.37
2018-07-31T18:38:29.097Z,6.63
2018-07-31T18:40:57.428Z,7.23
2018-07-31T18:43:25.605Z,6.87
2018-07-31T18:45:53.769Z,6.77
2018-07-31T18:48:21.976Z,7.17
2018-07-31T18:50:50.177Z,6.90
2018-07-31T18:53:18.394Z,8.40
2018-07-31T18:55:47.532Z,8.67
2018-07-31T18:58:15.753Z,7.57
2018-07-31T19:00:43.927Z,7.37
2018-07-31T19:03:12.109Z,6.10
2018-07-31T19:05:40.612Z,7.27
2018-07-31T19:08:08.866Z,6.47
2018-07-31T19:10:37.241Z,7.33
2018-07-31T19:13:05.491Z,6.67
2018-07-31T19:15:33.710Z,7.50
2018-07-31T19:18:01.937Z,7.87
2018-07-31T19:20:30.161Z,7.90
2018-07-31T19:22:58.353Z,7.30
2018-07-31T19:25:26.532Z,6.87
2018-07-31T19:27:55.272Z,8.00
2018-07-31T19:30:24.420Z,8.27
2018-07-31T19:32:53.657Z,8.90
2018-07-31T19:35:21.892Z,8.27
2018-07-31T19:37:50.541Z,6.80
2018-07-31T19:40:18.772Z,8.30
2018-07-31T19:42:47.143Z,7.97
2018-07-31T19:45:15.801Z,8.33
2018-07-31T19:47:44.725Z,8.60
2018-07-31T19:50:12.941Z,7.90
2018-07-31T19:52:41.137Z,7.87
2018-07-31T19:55:09.385Z,8.50
2018-07-31T19:57:37.617Z,8.60
2018-07-31T20:00:05.931Z,8.47
2018-07-31T20:02:34.089Z,8.37
2018-07-31T20:05:02.293Z,8.90
2018-07-31T20:07:30.831Z,8.27
2018-07-31T20:09:59.064Z,8.40
2018-07-31T20:12:27.421Z,9.17
2018-07-31T20:14:55.641Z,9.33
2018-07-31T20:17:23.844Z,10.13
2018-07-31T20:19:53.609Z,9.63
2018-07-31T20:22:22.208Z,9.40
2018-07-31T20:24:50.433Z,8.70
2018-07-31T20:27:19.603Z,9.00
2018-07-31T20:29:47.948Z,9.37
2018-07-31T20:32:16.983Z,11.00
2018-07-31T20:34:45.231Z,11.60
2018-07-31T20:37:13.486Z,10.00
2018-07-31T20:39:43.796Z,10.40
2018-07-31T20:42:12.957Z,11.47
2018-07-31T20:44:41.181Z,10.17
2018-07-31T20:47:09.528Z,9.70
2018-07-31T20:49:37.751Z,10.00
2018-07-31T20:52:06.338Z,9.30
2018-07-31T20:54:34.505Z,9.27
2018-07-31T20:57:02.837Z,10.10
2018-07-31T20:59:31.037Z,8.73
2018-07-31T21:01:59.790Z,10.40
2018-07-31T21:04:28.006Z,10.57
2018-07-31T21:06:56.736Z,9.50
2018-07-31T21:09:25.474Z,9.80
2018-07-31T21:11:54.172Z,10.07
2018-07-31T21:14:22.885Z,9.47
2018-07-31T21:16:51.562Z,10.03
2018-07-31T21:19:20.262Z,9.60
2018-07-31T21:21:49.057Z,9.27
2018-07-31T21:24:17.714Z,10.13
2018-07-31T21:26:46.443Z,9.97
2018-07-31T21:29:15.086Z,10.23
2018-07-31T21:31:43.960Z,9.90
2018-07-31T21:34:12.779Z,9.50
2018-07-31T21:36:41.566Z,10.97
2018-07-31T21:39:11.960Z,9.63
2018-07-31T21:41:41.675Z,11.00
2018-07-31T21:44:10.844Z,11.60
2018-07-31T21:46:39.162Z,10.50
2018-07-31T21:49:07.453Z,11.23
2018-07-31T21:51:35.668Z,10.20
2018-07-31T21:54:03.841Z,10.73
2018-07-31T21:56:32.103Z,10.37
2018-07-31T21:59:00.273Z,10.77
2018-07-31T22:01:28.480Z,10.63
2018-07-31T22:03:56.669Z,10.20
2018-07-31T22:06:24.873Z,11.20
2018-07-31T22:08:53.069Z,9.63
2018-07-31T22:11:21.230Z,9.83
2018-07-31T22:13:49.442Z,9.40
2018-07-31T22:16:17.633Z,9.50
2018-07-31T22:18:45.852Z,9.90
2018-07-31T22:21:14.044Z,9.90
2018-07-31T22:23:42.236Z,9.17
2018-07-31T22:26:10.477Z,9.00
2018-07-31T22:28:38.687Z,10.60
2018-07-31T22:31:06.973Z,8.87
2018-07-31T22:33:35.124Z,9.67
2018-07-31T22:36:03.449Z,9.73
2018-07-31T22:38:31.688Z,8.63
2018-07-31T22:40:59.852Z,9.67
2018-07-31T22:43:28.077Z,9.23
2018-07-31T22:45:56.315Z,9.63
2018-07-31T22:48:24.521Z,9.70
2018-07-31T22:50:52.737Z,8.97
2018-07-31T22:53:20.900Z,10.50
2018-07-31T22:55:49.147Z,10.17
2018-07-31T22:58:17.316Z,10.00
2018-07-31T23:00:45.517Z,10.37
2018-07-31T23:03:13.862Z,9.53
2018-07-31T23:05:41.783Z,10.70
2018-07-31T23:08:10.071Z,10.17
2018-07-31T23:10:38.249Z,10.10
2018-07-31T23:13:06.453Z,11.83
2018-07-31T23:15:34.656Z,12.53
2018-07-31T23:18:02.884Z,11.60
2018-07-31T23:20:31.128Z,11.60
2018-07-31T23:22:59.300Z,10.87
2018-07-31T23:25:27.509Z,12.13
2018-07-31T23:27:55.702Z,11.23
2018-07-31T23:30:23.983Z,9.80
2018-07-31T23:32:52.160Z,11.00
2018-07-31T23:35:20.410Z,9.13
2018-07-31T23:37:48.745Z,10.10
2018-07-31T23:40:17.000Z,10.20
2018-07-31T23:42:45.244Z,10.60
2018-07-31T23:45:13.509Z,11.00
2018-07-31T23:47:41.688Z,10.20
2018-07-31T23:50:09.872Z,9.80
2018-07-31T23:52:38.050Z,9.93
2018-07-31T23:55:06.281Z,10.47
2018-07-31T23:57:34.467Z,9.43
